Time;durP1;ratioP1;P1;durP2;ratioP2;P2;SDS_P1;SDS_P2;PMS_P1;PMS_P2;Temp;Humidity;BMP_temperature;BMP_pressure;BME280_temperature;BME280_humidity;BME280_pressure;Samples;Min_cycle;Max_cycle;Signal;HPM_P1;HPM_P2
2022/10/20 00:01:36;;;;;;;0.65;0.65;;;4.20;99.90;;;;;;5029071;28;20065;-83
2022/10/20 00:04:03;;;;;;;0.68;0.63;;;4.20;99.90;;;;;;5034254;28;20064;-85
2022/10/20 00:06:33;;;;;;;1.20;0.75;;;4.20;99.90;;;;;;5032975;28;20053;-85
2022/10/20 00:09:01;;;;;;;1.15;1.05;;;4.30;99.90;;;;;;5034597;28;20139;-86
2022/10/20 00:11:29;;;;;;;1.77;0.98;;;4.30;99.90;;;;;;5031645;28;20457;-85
2022/10/20 00:14:00;;;;;;;1.20;1.00;;;4.40;99.90;;;;;;5032382;28;20049;-85
2022/10/20 00:16:29;;;;;;;1.95;1.35;;;4.40;99.90;;;;;;5031675;28;20076;-86
2022/10/20 00:18:57;;;;;;;1.50;0.93;;;4.30;99.90;;;;;;5025424;28;20064;-85
2022/10/20 00:21:26;;;;;;;2.55;0.90;;;4.30;99.90;;;;;;5020147;28;20521;-86
2022/10/20 00:23:53;;;;;;;1.08;0.98;;;4.30;99.90;;;;;;5027832;28;20542;-86
2022/10/20 00:26:22;;;;;;;1.25;1.15;;;4.20;99.90;;;;;;5017521;28;20061;-85
2022/10/20 00:28:51;;;;;;;1.55;1.00;;;4.20;99.90;;;;;;5028426;28;20041;-86
2022/10/20 00:31:21;;;;;;;1.30;1.20;;;4.20;99.90;;;;;;5025310;28;20643;-85
2022/10/20 00:33:49;;;;;;;2.67;1.30;;;4.10;99.90;;;;;;5015804;28;20132;-86
2022/10/20 00:36:18;;;;;;;1.52;1.30;;;4.10;99.90;;;;;;5032617;28;20060;-84
2022/10/20 00:38:45;;;;;;;3.05;1.40;;;4.10;99.90;;;;;;5032230;28;20523;-85
2022/10/20 00:41:14;;;;;;;1.48;1.25;;;4.10;99.90;;;;;;5022022;28;20069;-86
2022/10/20 00:43:44;;;;;;;1.15;0.95;;;4.10;99.90;;;;;;5029544;28;20140;-85
2022/10/20 00:46:13;;;;;;;1.77;1.15;;;4.20;99.90;;;;;;5032487;28;20091;-87
2022/10/20 00:48:45;;;;;;;1.20;1.10;;;4.20;99.90;;;;;;5010622;28;20160;-86
2022/10/20 00:51:15;;;;;;;1.10;0.85;;;4.20;99.90;;;;;;5021162;28;20057;-87
2022/10/20 00:53:43;;;;;;;0.75;0.75;;;4.20;99.90;;;;;;5027280;28;20071;-86
2022/10/20 00:56:11;;;;;;;0.85;0.80;;;4.30;99.90;;;;;;5034248;28;20053;-86
2022/10/20 00:58:38;;;;;;;1.77;0.95;;;4.30;99.90;;;;;;5028674;28;20434;-86
2022/10/20 01:01:05;;;;;;;5.38;2.08;;;4.50;99.90;;;;;;5025918;28;20083;-85
2022/10/20 01:03:39;;;;;;;18.52;2.33;;;4.50;99.90;;;;;;5031983;28;20609;-85
2022/10/20 01:06:08;;;;;;;10.63;5.35;;;4.60;99.90;;;;;;5030091;28;20041;-85
2022/10/20 01:08:35;;;;;;;12.43;2.55;;;4.70;99.90;;;;;;5036040;28;20095;-85
2022/10/20 01:11:15;;;;;;;10.50;2.53;;;4.80;99.90;;;;;;5022176;28;20054;-87
2022/10/20 01:13:52;;;;;;;16.15;3.00;;;4.80;99.90;;;;;;5033660;28;20049;-85
2022/10/20 01:16:28;;;;;;;10.85;2.33;;;4.80;99.90;;;;;;5029203;28;20191;-85
2022/10/20 01:19:05;;;;;;;8.40;2.53;;;4.80;99.90;;;;;;5026855;28;20046;-87
2022/10/20 01:21:56;;;;;;;9.95;2.60;;;4.80;99.90;;;;;;5018052;28;20140;-86
2022/10/20 01:24:46;;;;;;;13.63;3.60;;;4.80;99.90;;;;;;5030937;28;20049;-86
2022/10/20 01:27:28;;;;;;;7.45;3.50;;;4.80;99.90;;;;;;5029964;28;20060;-87
2022/10/20 01:30:02;;;;;;;27.27;5.18;;;4.80;99.90;;;;;;5025197;28;20100;-88
2022/10/20 01:32:41;;;;;;;24.20;4.78;;;4.70;99.90;;;;;;5016569;28;20057;-85
2022/10/20 01:35:17;;;;;;;14.98;4.85;;;4.70;99.90;;;;;;5025754;28;20080;-85
2022/10/20 01:37:52;;;;;;;20.02;4.85;;;4.70;99.90;;;;;;5029774;28;20072;-85
2022/10/20 01:40:26;;;;;;;19.38;4.18;;;4.60;99.90;;;;;;5029699;28;20049;-88
2022/10/20 01:42:58;;;;;;;33.28;5.30;;;4.60;99.90;;;;;;5026261;28;20095;-85
2022/10/20 01:45:30;;;;;;;26.17;5.77;;;4.60;99.90;;;;;;5036304;28;20099;-87
2022/10/20 01:48:00;;;;;;;30.70;6.68;;;4.50;99.90;;;;;;5036973;28;20041;-85
2022/10/20 01:50:29;;;;;;;19.92;5.95;;;4.50;99.90;;;;;;5031384;28;20077;-88
2022/10/20 01:52:57;;;;;;;18.58;6.60;;;4.50;99.90;;;;;;5027178;28;20449;-89
2022/10/20 01:55:25;;;;;;;19.30;5.50;;;4.50;99.90;;;;;;5032968;28;20068;-88
2022/10/20 01:58:15;;;;;;;15.93;4.70;;;4.40;99.90;;;;;;5034117;28;20136;-88
2022/10/20 02:00:44;;;;;;;13.82;4.88;;;4.40;99.90;;;;;;5030044;28;20419;-87
2022/10/20 02:03:29;;;;;;;9.07;4.70;;;4.30;99.90;;;;;;5029855;28;20046;-89
2022/10/20 02:06:09;;;;;;;9.05;4.90;;;4.30;99.90;;;;;;5033185;28;20049;-89
2022/10/20 02:08:43;;;;;;;11.48;5.35;;;4.30;99.90;;;;;;5029097;28;20052;-88
2022/10/20 02:11:17;;;;;;;12.57;4.53;;;4.30;99.90;;;;;;5026343;28;20095;-88
2022/10/20 02:13:46;;;;;;;7.68;4.75;;;4.20;99.90;;;;;;5033620;28;20056;-89
2022/10/20 02:16:19;;;;;;;7.05;4.45;;;4.20;99.90;;;;;;5036124;28;20057;-86
2022/10/20 02:18:47;;;;;;;7.88;3.88;;;4.20;99.90;;;;;;5018834;28;20045;-88
2022/10/20 02:21:15;;;;;;;8.63;4.32;;;4.10;99.90;;;;;;5034367;28;20041;-87
2022/10/20 02:23:46;;;;;;;6.72;4.35;;;4.10;99.90;;;;;;5036191;28;20395;-88
2022/10/20 02:26:16;;;;;;;7.65;3.90;;;4.10;99.90;;;;;;5037219;28;20056;-89
2022/10/20 02:28:48;;;;;;;5.63;3.90;;;4.10;99.90;;;;;;5042922;28;20049;-88
2022/10/20 02:31:16;;;;;;;4.30;3.35;;;4.10;99.90;;;;;;5031802;28;20050;-89
2022/10/20 02:33:45;;;;;;;4.68;3.30;;;4.10;99.90;;;;;;5029666;28;20050;-90
2022/10/20 02:36:16;;;;;;;5.13;3.80;;;4.10;99.90;;;;;;5013385;28;20049;-87
2022/10/20 02:38:43;;;;;;;4.07;3.40;;;4.10;99.90;;;;;;5028994;28;20080;-87
2022/10/20 02:41:11;;;;;;;5.07;3.88;;;4.10;99.90;;;;;;5035364;28;20532;-88
2022/10/20 02:43:39;;;;;;;6.93;4.65;;;4.00;99.90;;;;;;5039027;28;20049;-85
2022/10/20 02:46:07;;;;;;;6.57;3.95;;;4.00;99.90;;;;;;5031901;28;20061;-85
2022/10/20 02:48:37;;;;;;;6.93;3.80;;;4.00;99.90;;;;;;5034298;28;20120;-86
2022/10/20 02:51:05;;;;;;;5.10;3.95;;;4.00;99.90;;;;;;5032887;28;20056;-85
2022/10/20 02:53:32;;;;;;;6.95;4.03;;;4.00;99.90;;;;;;5026494;28;20063;-85
2022/10/20 02:56:00;;;;;;;6.55;4.70;;;4.00;99.90;;;;;;5035764;28;20100;-87
2022/10/20 02:58:27;;;;;;;12.13;4.88;;;3.90;99.90;;;;;;5039221;28;20064;-88
2022/10/20 03:00:55;;;;;;;9.60;4.85;;;4.00;99.90;;;;;;5033120;28;20112;-85
2022/10/20 03:03:24;;;;;;;8.02;5.35;;;4.00;99.90;;;;;;5022422;28;20132;-86
2022/10/20 03:05:51;;;;;;;9.65;5.78;;;4.00;99.90;;;;;;5014632;28;20069;-86
2022/10/20 03:08:19;;;;;;;7.53;5.40;;;4.00;99.90;;;;;;5031505;28;20173;-86
2022/10/20 03:10:46;;;;;;;11.23;5.53;;;4.00;99.90;;;;;;5035135;28;20044;-86
2022/10/20 03:13:14;;;;;;;9.88;5.82;;;4.10;99.90;;;;;;5028877;28;20046;-86
2022/10/20 03:15:42;;;;;;;9.13;5.88;;;4.10;99.90;;;;;;5034782;28;20156;-83
2022/10/20 03:18:09;;;;;;;9.52;5.90;;;4.10;99.90;;;;;;5036969;28;20049;-89
2022/10/20 03:20:37;;;;;;;9.88;6.32;;;4.20;99.90;;;;;;5036118;28;20513;-87
2022/10/20 03:23:05;;;;;;;11.23;6.78;;;4.20;99.90;;;;;;5031475;28;20053;-87
2022/10/20 03:25:32;;;;;;;12.38;6.90;;;4.20;99.90;;;;;;5035683;28;20033;-89
2022/10/20 03:27:59;;;;;;;13.65;7.00;;;4.20;99.90;;;;;;5045002;28;20048;-89
2022/10/20 03:30:27;;;;;;;12.13;7.85;;;4.30;99.90;;;;;;5044064;28;20073;-88
2022/10/20 03:32:56;;;;;;;16.75;8.20;;;4.30;99.90;;;;;;5036443;28;20052;-89
2022/10/20 03:35:23;;;;;;;12.52;8.00;;;4.40;99.90;;;;;;5030581;28;20052;-87
2022/10/20 03:37:52;;;;;;;10.32;6.82;;;4.40;99.90;;;;;;5046199;28;20102;-87
2022/10/20 03:40:19;;;;;;;8.75;6.18;;;4.40;99.90;;;;;;5046572;28;20049;-86
2022/10/20 03:42:47;;;;;;;11.00;7.60;;;4.40;99.90;;;;;;5038536;28;20057;-86
2022/10/20 03:45:14;;;;;;;17.50;10.52;;;4.50;99.90;;;;;;5026300;28;20046;-86
2022/10/20 03:47:41;;;;;;;10.15;6.43;;;4.50;99.90;;;;;;5027511;28;20047;-86
2022/10/20 03:50:09;;;;;;;7.13;4.93;;;4.50;99.90;;;;;;5041346;28;20518;-82
2022/10/20 03:52:37;;;;;;;16.85;7.78;;;4.60;99.90;;;;;;5026818;28;20049;-87
2022/10/20 03:55:06;;;;;;;18.50;12.40;;;4.60;99.90;;;;;;5041082;28;20140;-86
2022/10/20 03:57:33;;;;;;;32.80;13.70;;;4.70;99.90;;;;;;5045296;28;20053;-85
2022/10/20 04:00:01;;;;;;;11.38;6.90;;;4.70;99.90;;;;;;5046292;28;20081;-85
2022/10/20 04:02:41;;;;;;;7.35;4.60;;;4.80;99.90;;;;;;5033479;28;20084;-83
2022/10/20 04:05:10;;;;;;;20.88;6.55;;;4.70;99.90;;;;;;5040691;28;20072;-86
2022/10/20 04:07:38;;;;;;;13.25;6.63;;;4.80;99.90;;;;;;5033150;28;20113;-86
2022/10/20 04:10:10;;;;;;;18.30;5.95;;;4.80;99.90;;;;;;5040679;28;20053;-86
2022/10/20 04:12:37;;;;;;;7.05;3.65;;;4.80;99.90;;;;;;5033121;28;20045;-88
2022/10/20 04:15:05;;;;;;;6.10;4.00;;;4.80;99.90;;;;;;5032216;28;20045;-81
2022/10/20 04:17:35;;;;;;;7.05;4.05;;;4.80;99.90;;;;;;5027999;28;20367;-81
2022/10/20 04:20:06;;;;;;;7.38;4.18;;;4.70;99.90;;;;;;5033392;28;20455;-86
2022/10/20 04:22:34;;;;;;;9.00;4.43;;;4.70;99.90;;;;;;5029848;28;20049;-85
2022/10/20 04:25:01;;;;;;;8.95;4.80;;;4.60;99.90;;;;;;5034537;28;20053;-77
2022/10/20 04:27:32;;;;;;;7.07;4.03;;;4.60;99.90;;;;;;5032821;28;20049;-87
2022/10/20 04:29:59;;;;;;;7.68;4.50;;;4.60;99.90;;;;;;5031869;28;20075;-85
2022/10/20 04:32:27;;;;;;;9.00;4.45;;;4.60;99.90;;;;;;5031524;28;20099;-81
2022/10/20 04:34:57;;;;;;;8.18;4.85;;;4.60;99.90;;;;;;5031470;28;20049;-82
2022/10/20 04:37:27;;;;;;;11.95;4.70;;;4.50;99.90;;;;;;5020473;28;20052;-84
2022/10/20 04:40:02;;;;;;;7.97;4.15;;;4.50;99.90;;;;;;5025248;28;20434;-80
2022/10/20 04:42:32;;;;;;;5.82;3.83;;;4.50;99.90;;;;;;5023225;28;20054;-80
2022/10/20 04:44:59;;;;;;;9.15;4.25;;;4.60;99.90;;;;;;5011252;28;20336;-80
2022/10/20 04:47:30;;;;;;;8.32;4.55;;;4.60;99.90;;;;;;5016813;28;20515;-81
2022/10/20 04:49:58;;;;;;;6.05;4.20;;;4.60;99.90;;;;;;5036138;28;20060;-83
2022/10/20 04:52:25;;;;;;;9.35;5.35;;;4.70;99.90;;;;;;5035706;28;20053;-82
2022/10/20 04:54:52;;;;;;;10.35;4.55;;;4.70;99.90;;;;;;5039404;28;20052;-81
2022/10/20 04:57:20;;;;;;;6.28;4.30;;;4.80;99.90;;;;;;5031389;28;20395;-80
2022/10/20 04:59:49;;;;;;;7.75;3.90;;;4.80;99.90;;;;;;5029645;28;20056;-79
2022/10/20 05:02:16;;;;;;;11.07;4.70;;;4.90;99.90;;;;;;5026156;28;20056;-77
2022/10/20 05:04:44;;;;;;;10.90;4.65;;;5.00;99.90;;;;;;5030166;28;20048;-79
2022/10/20 05:07:13;;;;;;;9.20;4.28;;;5.00;99.90;;;;;;5027662;28;20091;-79
2022/10/20 05:09:41;;;;;;;7.50;4.28;;;5.10;99.90;;;;;;5031052;28;20045;-82
2022/10/20 05:12:08;;;;;;;5.50;3.78;;;5.20;99.90;;;;;;5028590;28;20057;-80
2022/10/20 05:14:35;;;;;;;11.30;3.95;;;5.30;99.90;;;;;;5029016;28;20045;-77
2022/10/20 05:17:07;;;;;;;10.93;4.18;;;5.40;99.90;;;;;;5027688;28;20045;-80
2022/10/20 05:19:34;;;;;;;8.57;5.40;;;5.50;99.90;;;;;;5039463;28;20060;-81
2022/10/20 05:22:02;;;;;;;10.48;3.90;;;5.50;99.90;;;;;;5035945;28;20112;-80
2022/10/20 05:24:29;;;;;;;9.65;3.70;;;5.60;99.90;;;;;;5038547;28;20056;-80
2022/10/20 05:26:59;;;;;;;13.35;3.63;;;5.60;99.90;;;;;;5025564;28;20134;-78
2022/10/20 05:29:26;;;;;;;14.13;6.68;;;5.70;99.90;;;;;;5028942;28;20426;-78
2022/10/20 05:31:54;;;;;;;7.65;4.30;;;5.70;99.90;;;;;;5027323;28;20049;-78
2022/10/20 05:34:23;;;;;;;15.88;6.20;;;5.70;99.90;;;;;;5027544;28;20568;-78
2022/10/20 05:36:52;;;;;;;8.32;3.88;;;5.80;99.90;;;;;;5026467;28;20049;-80
2022/10/20 05:39:20;;;;;;;11.90;4.15;;;5.90;99.90;;;;;;5027541;28;20056;-78
2022/10/20 05:41:47;;;;;;;12.45;5.03;;;5.90;99.90;;;;;;5029019;28;20041;-79
2022/10/20 05:44:14;;;;;;;13.55;6.15;;;5.90;99.90;;;;;;5027975;28;20042;-82
2022/10/20 05:46:41;;;;;;;22.33;5.72;;;6.00;99.90;;;;;;5030098;28;20053;-84
2022/10/20 05:49:14;;;;;;;13.57;6.40;;;6.00;99.90;;;;;;5028775;28;20481;-81
2022/10/20 05:51:43;;;;;;;21.63;6.78;;;6.00;99.90;;;;;;5028759;28;20061;-79
2022/10/20 05:54:12;;;;;;;25.42;8.15;;;6.10;99.90;;;;;;5026898;28;20037;-78
2022/10/20 05:56:40;;;;;;;38.10;17.67;;;6.10;99.90;;;;;;5028747;28;20076;-78
2022/10/20 05:59:07;;;;;;;26.83;10.30;;;6.20;99.90;;;;;;5015547;28;20068;-80
2022/10/20 06:01:46;;;;;;;11.65;6.03;;;6.30;99.90;;;;;;5015581;28;20060;-79
2022/10/20 06:04:16;;;;;;;3.97;3.55;;;6.40;99.90;;;;;;5019344;28;20076;-79
2022/10/20 06:06:47;;;;;;;4.72;2.67;;;6.50;99.90;;;;;;5030582;28;20072;-80
2022/10/20 06:09:15;;;;;;;4.38;2.60;;;6.50;99.90;;;;;;5029540;28;20401;-82
2022/10/20 06:11:43;;;;;;;4.80;2.88;;;6.60;99.90;;;;;;5027002;28;20041;-84
2022/10/20 06:14:10;;;;;;;4.93;3.38;;;6.60;99.90;;;;;;5032402;28;20045;-84
2022/10/20 06:16:38;;;;;;;6.22;2.65;;;6.60;99.90;;;;;;5033563;28;20049;-80
2022/10/20 06:19:06;;;;;;;4.80;3.05;;;6.60;99.90;;;;;;5032870;28;20064;-81
2022/10/20 06:21:35;;;;;;;5.30;3.10;;;6.70;99.90;;;;;;5029793;28;20479;-82
2022/10/20 06:24:06;;;;;;;4.68;3.53;;;6.70;99.90;;;;;;5012918;28;20054;-83
2022/10/20 06:26:35;;;;;;;9.32;3.85;;;6.70;99.90;;;;;;5013874;28;20042;-81
2022/10/20 06:29:04;;;;;;;13.93;4.25;;;6.80;99.90;;;;;;5034441;28;20049;-82
2022/10/20 06:31:37;;;;;;;5.13;3.05;;;6.90;99.90;;;;;;5030503;28;20136;-83
2022/10/20 06:34:06;;;;;;;6.45;3.17;;;7.00;99.90;;;;;;5018517;28;20060;-81
2022/10/20 06:36:35;;;;;;;5.38;2.95;;;7.00;99.90;;;;;;5021174;28;20140;-80
2022/10/20 06:39:06;;;;;;;6.40;3.30;;;7.10;99.90;;;;;;5033354;28;20532;-80
2022/10/20 06:41:34;;;;;;;3.85;2.92;;;7.10;99.90;;;;;;5030338;28;20046;-80
2022/10/20 06:44:02;;;;;;;5.18;2.83;;;7.10;99.90;;;;;;5033580;28;20576;-79
2022/10/20 06:46:30;;;;;;;4.47;4.00;;;7.10;99.90;;;;;;5030162;28;20045;-80
2022/10/20 06:49:00;;;;;;;6.63;4.00;;;7.10;99.90;;;;;;5030928;28;20433;-80
2022/10/20 06:51:28;;;;;;;7.15;4.00;;;7.10;99.90;;;;;;5031352;28;20075;-81
2022/10/20 06:53:55;;;;;;;5.93;4.03;;;7.10;99.90;;;;;;5029723;28;20046;-79
2022/10/20 06:56:26;;;;;;;9.77;5.13;;;7.10;99.90;;;;;;5033070;28;20057;-81
2022/10/20 06:58:55;;;;;;;9.45;4.40;;;7.10;99.90;;;;;;5031645;28;20136;-79
2022/10/20 07:01:23;;;;;;;6.88;4.93;;;7.10;99.90;;;;;;5021336;28;20069;-79
2022/10/20 07:03:53;;;;;;;7.40;5.05;;;7.10;99.90;;;;;;5013123;28;20058;-78
2022/10/20 07:06:22;;;;;;;6.63;4.88;;;7.00;99.90;;;;;;5014469;28;20104;-80
2022/10/20 07:08:52;;;;;;;8.73;5.07;;;7.00;99.90;;;;;;5024730;28;20543;-82
2022/10/20 07:11:21;;;;;;;8.10;5.20;;;7.00;99.90;;;;;;5033468;28;20525;-80
2022/10/20 07:13:50;;;;;;;9.95;5.75;;;7.00;99.90;;;;;;5030975;28;20095;-80
2022/10/20 07:16:19;;;;;;;6.20;5.07;;;7.00;99.90;;;;;;5029312;28;20350;-80
2022/10/20 07:18:49;;;;;;;6.78;5.10;;;6.90;99.90;;;;;;5017092;28;20056;-79
2022/10/20 07:21:18;;;;;;;8.57;5.20;;;7.00;99.90;;;;;;5030731;28;20126;-80
2022/10/20 07:23:46;;;;;;;7.75;5.35;;;7.00;99.90;;;;;;5031454;28;20445;-82
2022/10/20 07:26:16;;;;;;;7.72;5.18;;;7.20;99.90;;;;;;5000660;28;20045;-81
2022/10/20 07:28:47;;;;;;;6.57;5.00;;;7.30;99.90;;;;;;5029808;28;20591;-81
2022/10/20 07:31:18;;;;;;;7.35;5.05;;;7.20;99.90;;;;;;5032407;28;20053;-80
2022/10/20 07:33:47;;;;;;;7.13;4.55;;;7.30;99.90;;;;;;5036513;28;20092;-80
2022/10/20 07:36:15;;;;;;;9.35;4.85;;;7.30;99.90;;;;;;5033028;28;20461;-79
2022/10/20 07:38:43;;;;;;;7.65;5.18;;;7.30;99.90;;;;;;5033885;28;20081;-79
2022/10/20 07:41:11;;;;;;;6.30;4.85;;;7.20;99.90;;;;;;5031310;28;20049;-79
2022/10/20 07:43:39;;;;;;;9.75;5.50;;;7.20;99.90;;;;;;5027257;28;20319;-81
2022/10/20 07:46:07;;;;;;;7.93;5.10;;;7.20;99.90;;;;;;5026071;28;20430;-80
2022/10/20 07:48:36;;;;;;;7.25;4.75;;;7.30;99.90;;;;;;5013836;28;20433;-82
2022/10/20 07:51:24;;;;;;;5.75;4.65;;;7.40;99.90;;;;;;5031978;28;20068;-81
2022/10/20 07:53:53;;;;;;;7.88;4.80;;;7.50;99.90;;;;;;5013614;28;20624;-80
2022/10/20 07:56:20;;;;;;;5.68;4.50;;;7.40;99.90;;;;;;5026785;28;20054;-80
2022/10/20 07:58:48;;;;;;;7.65;4.90;;;7.40;99.90;;;;;;5029606;28;20569;-80
2022/10/20 08:01:16;;;;;;;9.63;5.57;;;7.30;99.90;;;;;;5025141;28;20053;-79
2022/10/20 08:03:45;;;;;;;7.68;4.93;;;7.40;99.90;;;;;;5030314;28;20046;-80
2022/10/20 08:06:12;;;;;;;6.43;4.57;;;7.30;99.90;;;;;;5031202;28;20053;-80
2022/10/20 08:08:39;;;;;;;5.85;4.47;;;7.30;99.90;;;;;;5020961;28;20081;-79
2022/10/20 08:11:07;;;;;;;9.60;4.80;;;7.30;99.90;;;;;;5024547;28;20053;-79
2022/10/20 08:13:34;;;;;;;16.20;8.07;;;7.40;99.90;;;;;;5024284;28;20056;-79
2022/10/20 08:16:02;;;;;;;5.80;5.30;;;7.40;99.90;;;;;;5026268;28;20630;-81
2022/10/20 08:18:29;;;;;;;7.20;4.95;;;7.30;99.90;;;;;;5025738;28;20099;-81
2022/10/20 08:21:09;;;;;;;9.15;6.40;;;7.40;99.90;;;;;;5028361;28;20107;-83
2022/10/20 08:23:39;;;;;;;8.50;5.28;;;7.40;99.90;;;;;;5024600;28;20060;-80
2022/10/20 08:26:07;;;;;;;7.80;5.07;;;7.50;99.90;;;;;;5011267;28;20399;-80
2022/10/20 08:28:35;;;;;;;7.05;4.38;;;7.50;99.90;;;;;;5011649;28;20057;-79
2022/10/20 08:31:03;;;;;;;4.65;3.70;;;7.60;99.90;;;;;;5014579;28;20080;-78
2022/10/20 08:33:30;;;;;;;7.88;5.30;;;7.70;99.90;;;;;;5030492;28;20060;-79
2022/10/20 08:36:02;;;;;;;6.28;5.15;;;7.70;99.90;;;;;;5028951;28;20088;-79
2022/10/20 08:38:31;;;;;;;6.35;5.10;;;7.70;99.90;;;;;;5029208;28;20049;-80
2022/10/20 08:40:59;;;;;;;6.68;5.13;;;7.70;99.90;;;;;;5022877;28;20055;-79
2022/10/20 08:43:29;;;;;;;5.22;4.72;;;7.80;99.90;;;;;;5031924;28;20072;-79
2022/10/20 08:45:57;;;;;;;8.55;5.10;;;7.80;99.90;;;;;;5031877;28;20157;-80
2022/10/20 08:48:27;;;;;;;5.13;4.05;;;8.00;99.90;;;;;;5030927;28;20041;-80
2022/10/20 08:50:56;;;;;;;6.65;4.65;;;8.10;99.90;;;;;;5036041;28;20131;-80
2022/10/20 08:53:26;;;;;;;7.53;4.85;;;8.10;99.90;;;;;;5029544;28;20042;-82
2022/10/20 08:55:56;;;;;;;7.43;4.38;;;8.20;99.90;;;;;;5038130;28;20581;-84
2022/10/20 08:58:24;;;;;;;6.47;4.18;;;8.30;99.90;;;;;;5015631;28;20096;-85
2022/10/20 09:00:56;;;;;;;9.10;4.72;;;8.30;99.90;;;;;;5031232;28;20045;-83
2022/10/20 09:03:28;;;;;;;6.33;4.57;;;8.30;99.90;;;;;;5027149;28;20137;-82
2022/10/20 09:06:00;;;;;;;8.88;5.70;;;8.30;99.90;;;;;;5039199;28;20049;-83
2022/10/20 09:08:31;;;;;;;5.88;4.80;;;8.30;99.90;;;;;;5037127;28;20116;-81
2022/10/20 09:11:01;;;;;;;10.18;4.53;;;8.40;99.90;;;;;;5051643;28;20080;-83
2022/10/20 09:13:31;;;;;;;6.28;4.78;;;8.40;99.90;;;;;;5042334;28;20103;-86
2022/10/20 09:16:02;;;;;;;9.55;5.75;;;8.30;99.90;;;;;;5039870;28;20049;-82
2022/10/20 09:18:30;;;;;;;5.72;4.25;;;8.40;99.90;;;;;;5034086;28;20052;-83
2022/10/20 09:21:01;;;;;;;8.48;5.18;;;8.30;99.90;;;;;;5031361;28;20161;-84
2022/10/20 09:23:34;;;;;;;5.47;4.43;;;8.30;99.90;;;;;;5030654;28;20078;-83
2022/10/20 09:26:03;;;;;;;5.25;4.18;;;8.40;99.90;;;;;;5035050;28;20475;-82
2022/10/20 09:28:30;;;;;;;7.43;4.72;;;8.40;99.90;;;;;;5029988;28;20453;-81
2022/10/20 09:30:57;;;;;;;7.95;4.38;;;8.50;99.90;;;;;;5030940;28;20536;-82
2022/10/20 09:33:30;;;;;;;6.13;4.60;;;8.50;99.90;;;;;;5032859;28;20077;-80
2022/10/20 09:36:05;;;;;;;10.38;7.65;;;8.60;99.90;;;;;;5030355;28;20152;-83
2022/10/20 09:38:35;;;;;;;13.35;6.30;;;8.60;99.90;;;;;;5030428;28;20053;-83
2022/10/20 09:41:11;;;;;;;5.20;3.88;;;8.70;99.90;;;;;;5022282;28;20049;-82
2022/10/20 09:43:48;;;;;;;7.70;5.55;;;8.80;99.90;;;;;;5012346;28;20429;-82
2022/10/20 09:46:20;;;;;;;7.07;3.95;;;8.80;99.90;;;;;;5023561;28;20045;-81
2022/10/20 09:48:49;;;;;;;8.68;4.25;;;8.90;99.90;;;;;;5032601;28;20045;-82
2022/10/20 09:51:20;;;;;;;9.80;4.05;;;9.10;99.90;;;;;;5028323;28;20057;-82
2022/10/20 09:53:56;;;;;;;8.77;3.45;;;9.30;99.90;;;;;;5026358;28;20049;-81
2022/10/20 09:56:30;;;;;;;5.20;3.63;;;9.40;99.90;;;;;;5041003;28;20049;-83
2022/10/20 09:58:59;;;;;;;6.05;3.58;;;9.50;99.90;;;;;;5046198;28;20113;-84
2022/10/20 10:01:26;;;;;;;7.57;3.50;;;9.60;99.90;;;;;;5043230;28;20053;-85
2022/10/20 10:03:58;;;;;;;6.78;3.47;;;9.60;99.90;;;;;;5040459;28;20048;-83
2022/10/20 10:06:40;;;;;;;4.72;3.05;;;9.60;99.90;;;;;;5042017;28;20060;-83
2022/10/20 10:09:36;;;;;;;6.00;3.15;;;9.60;99.90;;;;;;5048710;28;20045;-84
2022/10/20 10:12:16;;;;;;;4.15;2.67;;;9.70;99.90;;;;;;5043171;28;20525;-82
2022/10/20 10:14:53;;;;;;;5.75;2.38;;;9.70;99.90;;;;;;5043423;28;20132;-83
2022/10/20 10:17:29;;;;;;;3.58;2.72;;;9.60;99.90;;;;;;5048397;28;20501;-83
2022/10/20 10:19:57;;;;;;;4.90;2.03;;;9.60;99.90;;;;;;5048948;28;20517;-84
2022/10/20 10:22:25;;;;;;;4.85;1.67;;;9.80;99.90;;;;;;5027272;28;20064;-84
2022/10/20 10:25:02;;;;;;;4.28;1.92;;;9.90;99.90;;;;;;5044820;28;20036;-84
2022/10/20 10:27:33;;;;;;;6.22;1.70;;;10.20;99.90;;;;;;5042985;28;20060;-84
2022/10/20 10:30:30;;;;;;;6.03;2.42;;;10.40;99.90;;;;;;5043760;28;20092;-85
2022/10/20 10:33:01;;;;;;;6.65;3.20;;;10.50;99.90;;;;;;5025042;28;20108;-83
2022/10/20 10:35:33;;;;;;;4.70;2.80;;;10.40;99.90;;;;;;5013805;28;20588;-81
2022/10/20 10:38:01;;;;;;;4.07;2.38;;;10.30;99.90;;;;;;5028025;28;20049;-82
2022/10/20 10:40:35;;;;;;;6.43;2.40;;;10.20;99.90;;;;;;5030847;28;20042;-81
2022/10/20 10:43:28;;;;;;;4.53;2.70;;;10.10;99.90;;;;;;5012806;28;20053;-82
2022/10/20 10:45:58;;;;;;;7.57;1.95;;;10.00;99.90;;;;;;5036150;28;20046;-82
2022/10/20 10:48:47;;;;;;;10.48;8.02;;;9.90;99.90;;;;;;5037418;28;20497;-81
2022/10/20 10:51:22;;;;;;;4.30;2.53;;;9.80;99.90;;;;;;5031838;28;20058;-80
2022/10/20 10:54:00;;;;;;;5.88;2.60;;;9.70;99.90;;;;;;5034193;28;20445;-84
2022/10/20 10:56:34;;;;;;;6.78;3.00;;;9.60;99.90;;;;;;5032196;28;20056;-81
2022/10/20 10:59:11;;;;;;;3.90;3.25;;;9.50;99.90;;;;;;5032597;28;20152;-80
2022/10/20 11:02:14;;;;;;;2.97;2.38;;;9.40;99.90;;;;;;5031643;28;20490;-81
2022/10/20 11:05:20;;;;;;;6.85;4.15;;;9.30;99.90;;;;;;4972078;28;20509;-82
2022/10/20 11:07:56;;;;;;;7.05;2.20;;;9.20;99.90;;;;;;5024563;28;20076;-83
2022/10/20 11:10:33;;;;;;;4.50;2.67;;;9.20;99.90;;;;;;5030831;28;20061;-83
2022/10/20 11:13:16;;;;;;;4.30;2.67;;;9.20;99.90;;;;;;5035029;28;20049;-83
2022/10/20 11:16:02;;;;;;;3.80;2.20;;;9.10;99.90;;;;;;5039653;28;20552;-82
2022/10/20 11:18:49;;;;;;;10.95;8.25;;;9.10;99.90;;;;;;5038027;28;20049;-82
2022/10/20 11:21:28;;;;;;;5.15;3.03;;;9.00;99.90;;;;;;5040765;28;20159;-82
2022/10/20 11:24:11;;;;;;;3.78;2.50;;;9.10;99.90;;;;;;5039501;28;20052;-86
2022/10/20 11:26:40;;;;;;;6.10;2.47;;;9.10;99.90;;;;;;5045472;28;20041;-83
2022/10/20 11:29:13;;;;;;;;;;;9.00;99.90;;;;;;5040661;28;20410;-83
2022/10/20 11:31:53;;;;;;;3.30;2.92;;;9.00;99.90;;;;;;5046750;28;20336;-82
2022/10/20 11:34:28;;;;;;;5.97;2.28;;;9.00;99.90;;;;;;5043760;28;20093;-83
2022/10/20 11:37:05;;;;;;;8.07;3.05;;;8.90;99.90;;;;;;5042196;28;20057;-84
2022/10/20 11:39:40;;;;;;;4.75;3.40;;;8.90;99.90;;;;;;5022974;28;20183;-82
2022/10/20 11:42:21;;;;;;;6.03;3.50;;;8.80;99.90;;;;;;5026560;28;20300;-82
2022/10/20 11:44:54;;;;;;;5.63;3.15;;;8.80;99.90;;;;;;5034203;28;20053;-83
2022/10/20 11:47:29;;;;;;;5.07;3.20;;;8.70;99.90;;;;;;4996842;28;20037;-82
2022/10/20 11:49:56;;;;;;;5.00;3.50;;;8.60;99.90;;;;;;5037829;28;20568;-82
2022/10/20 11:52:54;;;;;;;4.85;3.75;;;8.60;99.90;;;;;;5027628;28;20049;-83
2022/10/20 11:55:42;;;;;;;4.18;2.78;;;8.60;99.90;;;;;;5006724;28;20034;-81
2022/10/20 11:58:31;;;;;;;3.15;2.30;;;8.50;99.90;;;;;;5030760;28;20042;-83
2022/10/20 12:01:20;;;;;;;5.78;3.53;;;8.50;99.90;;;;;;5025591;28;20144;-82
2022/10/20 12:04:21;;;;;;;4.68;3.95;;;8.40;99.90;;;;;;5032012;28;20037;-84
2022/10/20 12:07:37;;;;;;;13.98;3.85;;;8.30;99.90;;;;;;5025508;28;20640;-84
2022/10/20 12:10:36;;;;;;;6.20;3.33;;;8.20;99.90;;;;;;4947210;29;20147;-83
2022/10/20 12:13:18;;;;;;;3.55;2.45;;;8.30;99.90;;;;;;4953280;28;20146;-83
2022/10/20 12:15:47;;;;;;;5.47;2.83;;;8.20;99.90;;;;;;5019874;28;20049;-83
2022/10/20 12:21:53;;;;;;;4.47;2.90;;;8.20;99.90;;;;;;4742408;27;20045;-75
2022/10/20 12:24:31;;;;;;;;;;;8.20;99.90;;;;;;4868206;29;20080;-75
2022/10/20 12:27:18;;;;;;;7.75;3.42;;;8.20;99.90;;;;;;4853686;29;20216;-75
2022/10/20 12:30:05;;;;;;;6.32;3.80;;;8.10;99.90;;;;;;4869801;29;20148;-74
2022/10/20 12:32:59;;;;;;;3.60;3.30;;;8.00;99.90;;;;;;4863953;29;20053;-73
2022/10/20 12:35:43;;;;;;;6.03;3.58;;;7.90;99.90;;;;;;4870612;29;20045;-74
2022/10/20 12:38:18;;;;;;;4.70;3.53;;;7.90;99.90;;;;;;4865724;29;20064;-74
2022/10/20 12:40:50;;;;;;;3.92;3.58;;;7.90;99.90;;;;;;4871482;29;20116;-78
2022/10/20 12:43:26;;;;;;;4.75;4.15;;;7.90;99.90;;;;;;4862698;29;20076;-78
2022/10/20 12:45:58;;;;;;;3.75;3.45;;;7.90;99.90;;;;;;4853123;29;20057;-78
2022/10/20 12:48:26;;;;;;;4.50;3.90;;;7.90;99.90;;;;;;5109801;23;20434;-79
2022/10/20 12:50:54;;;;;;;5.53;3.85;;;7.90;99.90;;;;;;4834723;29;20106;-78
2022/10/20 12:53:25;;;;;;;7.43;4.07;;;7.80;99.90;;;;;;4823232;29;20057;-78
2022/10/20 12:55:59;;;;;;;8.30;4.32;;;7.80;99.90;;;;;;4820513;29;20078;-78
2022/10/20 12:58:32;;;;;;;6.05;4.55;;;7.80;99.90;;;;;;4809356;29;20062;-75
2022/10/20 13:01:09;;;;;;;5.20;4.53;;;7.70;99.90;;;;;;4825166;29;20042;-74
2022/10/20 13:03:44;;;;;;;6.50;4.22;;;7.70;99.90;;;;;;4808114;29;20050;-74
2022/10/20 13:06:40;;;;;;;5.68;4.70;;;7.60;99.90;;;;;;4825389;29;20098;-76
2022/10/20 13:09:24;;;;;;;5.25;4.63;;;7.60;99.90;;;;;;4821871;29;20153;-75
2022/10/20 13:12:05;;;;;;;5.75;4.15;;;7.50;99.90;;;;;;4832739;29;20512;-74
2022/10/20 13:15:03;;;;;;;4.57;4.15;;;7.50;99.90;;;;;;4830085;29;20050;-79
2022/10/20 13:17:48;;;;;;;5.82;4.40;;;7.40;99.90;;;;;;4811279;29;20089;-79
2022/10/20 13:20:25;;;;;;;6.55;5.72;;;7.40;99.90;;;;;;4822259;29;20141;-75
2022/10/20 13:22:54;;;;;;;8.45;5.85;;;7.40;99.90;;;;;;4820895;29;20525;-75
2022/10/20 13:25:46;;;;;;;10.55;6.57;;;7.40;99.90;;;;;;4828017;29;20408;-74